Time;durP1;ratioP1;P1;durP2;ratioP2;P2;SDS_P1;SDS_P2;PMS_P1;PMS_P2;Temp;Humidity;BMP_temperature;BMP_pressure;BME280_temperature;BME280_humidity;BME280_pressure;Samples;Min_cycle;Max_cycle;Signal;HPM_P1;HPM_P2
2024/03/17 00:00:18;;;;;;;226.23;67.78;;;;;;;;;;5010917;28;20189;-45
2024/03/17 00:02:44;;;;;;;222.32;63.72;;;;;;;;;;5010728;28;20542;-44
2024/03/17 00:05:10;;;;;;;228.73;68.65;;;;;;;;;;5010610;28;20205;-45
2024/03/17 00:07:36;;;;;;;220.80;62.40;;;;;;;;;;5010961;28;20689;-44
2024/03/17 00:10:02;;;;;;;222.23;64.93;;;;;;;;;;5011005;28;20404;-45
2024/03/17 00:12:28;;;;;;;220.93;62.83;;;;;;;;;;5010813;28;20451;-45
2024/03/17 00:14:54;;;;;;;222.27;64.63;;;;;;;;;;5010736;28;20580;-45
2024/03/17 00:17:20;;;;;;;223.20;64.43;;;;;;;;;;5010423;28;20488;-44
2024/03/17 00:19:46;;;;;;;224.98;65.68;;;;;;;;;;5010361;28;20467;-45
2024/03/17 00:22:15;;;;;;;223.13;63.80;;;;;;;;;;5010116;28;20206;-45
2024/03/17 00:24:43;;;;;;;221.38;62.65;;;;;;;;;;5010619;28;20637;-45
2024/03/17 00:27:09;;;;;;;220.85;65.25;;;;;;;;;;5010331;28;20193;-44
2024/03/17 00:29:35;;;;;;;221.88;64.05;;;;;;;;;;5010728;28;20644;-44
2024/03/17 00:32:01;;;;;;;224.27;65.20;;;;;;;;;;5010649;28;20197;-44
2024/03/17 00:34:28;;;;;;;222.27;63.28;;;;;;;;;;5010599;28;20416;-45
2024/03/17 00:36:54;;;;;;;223.27;64.45;;;;;;;;;;5010235;28;20286;-45
2024/03/17 00:39:20;;;;;;;222.00;63.87;;;;;;;;;;5009282;28;20304;-45
2024/03/17 00:41:46;;;;;;;223.85;66.25;;;;;;;;;;5010394;28;20459;-45
2024/03/17 00:44:12;;;;;;;222.43;65.47;;;;;;;;;;5010431;28;20639;-45
2024/03/17 00:46:39;;;;;;;225.87;65.37;;;;;;;;;;5010383;28;20973;-44
2024/03/17 00:49:05;;;;;;;223.85;64.75;;;;;;;;;;5010596;28;20484;-45
2024/03/17 00:51:31;;;;;;;224.27;65.80;;;;;;;;;;5012237;28;20593;-45
2024/03/17 00:53:58;;;;;;;219.70;61.43;;;;;;;;;;5014263;28;20186;-44
2024/03/17 00:56:24;;;;;;;221.85;62.00;;;;;;;;;;5013658;28;20437;-46
2024/03/17 00:58:51;;;;;;;219.75;60.00;;;;;;;;;;5013903;28;20177;-44
2024/03/17 01:01:19;;;;;;;223.00;65.57;;;;;;;;;;5013828;28;20250;-44
2024/03/17 01:03:45;;;;;;;219.20;62.38;;;;;;;;;;5013802;28;20209;-45
2024/03/17 01:06:11;;;;;;;220.63;62.93;;;;;;;;;;5013291;28;20244;-44
2024/03/17 01:08:36;;;;;;;219.50;61.20;;;;;;;;;;5013313;28;20416;-44
2024/03/17 01:11:03;;;;;;;219.27;62.00;;;;;;;;;;5014132;28;20442;-44
2024/03/17 01:13:29;;;;;;;221.50;62.75;;;;;;;;;;5013551;28;20933;-44
2024/03/17 01:15:55;;;;;;;219.67;62.37;;;;;;;;;;5013544;28;20213;-44
2024/03/17 01:18:21;;;;;;;219.23;62.50;;;;;;;;;;5013708;28;20410;-44
2024/03/17 01:20:47;;;;;;;219.02;61.42;;;;;;;;;;5013678;28;20551;-44
2024/03/17 01:23:13;;;;;;;220.27;63.50;;;;;;;;;;5013538;28;20188;-45
2024/03/17 01:25:39;;;;;;;222.27;65.68;;;;;;;;;;5013293;28;20436;-45
2024/03/17 01:28:06;;;;;;;218.77;60.27;;;;;;;;;;5013395;28;20656;-45
2024/03/17 01:30:32;;;;;;;221.57;63.30;;;;;;;;;;5013533;28;20443;-44
2024/03/17 01:33:01;;;;;;;220.80;61.88;;;;;;;;;;5013661;28;20173;-44
2024/03/17 01:35:27;;;;;;;222.30;65.80;;;;;;;;;;5013157;28;20195;-45
2024/03/17 01:37:54;;;;;;;222.00;63.47;;;;;;;;;;5013442;28;20203;-44
2024/03/17 01:40:21;;;;;;;222.93;64.38;;;;;;;;;;5013198;28;20680;-45
2024/03/17 01:42:47;;;;;;;221.90;63.92;;;;;;;;;;5013275;28;20593;-45
2024/03/17 01:45:28;;;;;;;225.40;67.60;;;;;;;;;;5012952;28;20213;-45
2024/03/17 01:47:57;;;;;;;221.95;64.43;;;;;;;;;;5013117;28;20407;-44
2024/03/17 01:50:24;;;;;;;221.18;63.20;;;;;;;;;;5013136;28;20173;-44
2024/03/17 01:52:52;;;;;;;218.85;61.63;;;;;;;;;;5013081;28;20193;-44
2024/03/17 01:55:18;;;;;;;226.63;67.40;;;;;;;;;;5012651;28;20224;-44
2024/03/17 01:57:45;;;;;;;219.88;61.58;;;;;;;;;;5013153;28;20212;-44
2024/03/17 02:00:12;;;;;;;222.43;64.03;;;;;;;;;;5013017;28;20641;-45
2024/03/17 02:02:38;;;;;;;220.50;64.30;;;;;;;;;;5011637;28;20180;-45
2024/03/17 02:05:04;;;;;;;220.90;62.75;;;;;;;;;;5012207;28;20184;-44
2024/03/17 02:07:30;;;;;;;221.48;65.40;;;;;;;;;;5011875;28;20210;-44
2024/03/17 02:09:58;;;;;;;220.67;62.97;;;;;;;;;;5012386;28;20232;-45
2024/03/17 02:12:25;;;;;;;219.10;60.75;;;;;;;;;;5012754;28;20786;-44
2024/03/17 02:14:51;;;;;;;220.65;62.50;;;;;;;;;;5012617;28;20180;-44
2024/03/17 02:17:17;;;;;;;223.88;66.90;;;;;;;;;;5012287;28;20203;-45
2024/03/17 02:19:44;;;;;;;222.25;65.28;;;;;;;;;;5012706;28;20181;-44
2024/03/17 02:22:16;;;;;;;219.10;62.85;;;;;;;;;;5011638;28;20248;-44
2024/03/17 02:24:42;;;;;;;220.43;63.28;;;;;;;;;;5012533;28;20160;-44
2024/03/17 02:27:08;;;;;;;219.65;62.40;;;;;;;;;;5012098;28;20199;-45
2024/03/17 02:29:36;;;;;;;218.25;62.60;;;;;;;;;;5012369;28;20197;-44
2024/03/17 02:32:06;;;;;;;221.50;63.53;;;;;;;;;;5008266;28;20185;-45
2024/03/17 02:34:33;;;;;;;222.80;65.43;;;;;;;;;;5010171;28;20171;-45
2024/03/17 02:36:59;;;;;;;222.82;66.53;;;;;;;;;;5011907;28;20619;-44
2024/03/17 02:39:34;;;;;;;220.87;63.53;;;;;;;;;;5012194;28;20220;-44
2024/03/17 02:42:00;;;;;;;223.32;67.57;;;;;;;;;;5012188;28;20492;-44
2024/03/17 02:44:26;;;;;;;223.27;65.20;;;;;;;;;;5012195;28;20191;-45
2024/03/17 02:46:52;;;;;;;221.38;65.13;;;;;;;;;;5012119;28;20660;-45
2024/03/17 02:49:18;;;;;;;220.33;63.50;;;;;;;;;;5012307;28;20209;-44
2024/03/17 02:51:44;;;;;;;219.60;62.97;;;;;;;;;;5011965;28;20415;-44
2024/03/17 02:54:10;;;;;;;220.57;63.50;;;;;;;;;;5011839;28;20505;-44
2024/03/17 02:56:36;;;;;;;216.27;60.90;;;;;;;;;;5011587;28;20431;-44
2024/03/17 02:59:02;;;;;;;218.83;62.87;;;;;;;;;;5011967;28;20508;-44
2024/03/17 03:01:28;;;;;;;217.50;61.27;;;;;;;;;;5011724;28;21065;-45
2024/03/17 03:03:54;;;;;;;218.67;62.37;;;;;;;;;;5011840;28;20413;-44
2024/03/17 03:06:20;;;;;;;218.57;61.30;;;;;;;;;;5011431;28;20494;-45
2024/03/17 03:08:49;;;;;;;219.37;63.60;;;;;;;;;;5011799;28;20184;-44
2024/03/17 03:11:15;;;;;;;220.15;62.10;;;;;;;;;;5011665;28;20473;-44
2024/03/17 03:13:42;;;;;;;220.13;63.50;;;;;;;;;;5011619;28;20258;-44
2024/03/17 03:16:09;;;;;;;218.68;63.35;;;;;;;;;;5010566;28;20665;-44
2024/03/17 03:18:36;;;;;;;220.63;63.20;;;;;;;;;;5011456;28;20547;-45
2024/03/17 03:21:02;;;;;;;220.15;64.05;;;;;;;;;;5011512;28;20210;-45
2024/03/17 03:23:27;;;;;;;218.50;60.80;;;;;;;;;;5011448;28;20252;-44
2024/03/17 03:25:57;;;;;;;217.27;60.25;;;;;;;;;;5011231;28;20432;-45
2024/03/17 03:28:23;;;;;;;214.75;58.90;;;;;;;;;;5011465;28;20180;-45
2024/03/17 03:30:49;;;;;;;216.55;61.70;;;;;;;;;;5011534;28;20222;-45
2024/03/17 03:33:15;;;;;;;215.23;60.20;;;;;;;;;;5011319;28;20223;-44
2024/03/17 03:35:42;;;;;;;216.95;59.30;;;;;;;;;;5010996;28;20427;-44
2024/03/17 03:38:08;;;;;;;219.63;64.78;;;;;;;;;;5011290;28;20652;-44
2024/03/17 03:40:34;;;;;;;216.88;61.17;;;;;;;;;;5011256;28;20207;-44
2024/03/17 03:43:00;;;;;;;217.63;62.20;;;;;;;;;;5011320;28;20172;-44
2024/03/17 03:45:26;;;;;;;219.93;63.57;;;;;;;;;;5010808;28;20443;-44
2024/03/17 03:47:52;;;;;;;217.17;61.77;;;;;;;;;;5011134;28;20415;-44
2024/03/17 03:50:20;;;;;;;217.03;61.87;;;;;;;;;;5011189;28;20427;-45
2024/03/17 03:52:46;;;;;;;218.20;61.75;;;;;;;;;;5011284;28;20408;-44
2024/03/17 03:55:15;;;;;;;219.55;61.28;;;;;;;;;;5010867;28;20214;-45
2024/03/17 03:57:47;;;;;;;216.48;60.05;;;;;;;;;;5011052;28;20172;-45
2024/03/17 04:00:14;;;;;;;218.75;63.60;;;;;;;;;;5011040;28;20589;-44
2024/03/17 04:02:41;;;;;;;216.00;60.67;;;;;;;;;;5011142;28;20714;-44
2024/03/17 04:05:07;;;;;;;216.45;61.00;;;;;;;;;;5010864;28;20180;-45
2024/03/17 04:07:34;;;;;;;213.68;58.63;;;;;;;;;;5002660;28;20234;-44
2024/03/17 04:10:00;;;;;;;216.27;61.60;;;;;;;;;;5011063;28;20192;-45
2024/03/17 04:12:26;;;;;;;216.10;60.35;;;;;;;;;;5011073;28;20180;-44
2024/03/17 04:14:53;;;;;;;219.02;61.67;;;;;;;;;;5011105;28;20652;-44
2024/03/17 04:17:21;;;;;;;220.00;63.53;;;;;;;;;;5010610;28;20191;-44
2024/03/17 04:19:47;;;;;;;217.15;60.85;;;;;;;;;;5011046;28;20172;-44
2024/03/17 04:22:13;;;;;;;219.75;62.65;;;;;;;;;;5010552;28;20204;-45
2024/03/17 04:24:39;;;;;;;217.67;61.30;;;;;;;;;;5011358;28;20230;-44
2024/03/17 04:27:05;;;;;;;216.37;60.93;;;;;;;;;;5013161;28;20426;-44
2024/03/17 04:29:31;;;;;;;216.93;61.22;;;;;;;;;;5014427;28;20404;-45
2024/03/17 04:31:57;;;;;;;218.57;61.17;;;;;;;;;;5014782;28;20184;-44
2024/03/17 04:34:23;;;;;;;218.30;61.80;;;;;;;;;;5014560;28;20446;-44
2024/03/17 04:36:49;;;;;;;218.00;61.13;;;;;;;;;;5014282;28;20450;-44
2024/03/17 04:39:15;;;;;;;220.07;64.95;;;;;;;;;;5014455;28;20411;-44
2024/03/17 04:41:43;;;;;;;216.33;60.40;;;;;;;;;;5014324;28;20745;-45
2024/03/17 04:44:09;;;;;;;220.40;65.60;;;;;;;;;;5014391;28;20403;-45
2024/03/17 04:46:35;;;;;;;217.00;61.72;;;;;;;;;;5013809;28;20267;-44
2024/03/17 04:49:03;;;;;;;216.43;63.27;;;;;;;;;;5014220;28;20255;-44
2024/03/17 04:51:29;;;;;;;218.95;64.80;;;;;;;;;;5014201;28;20442;-45
2024/03/17 04:53:55;;;;;;;218.80;63.63;;;;;;;;;;5014241;28;20172;-44
2024/03/17 04:56:21;;;;;;;218.80;64.18;;;;;;;;;;5013762;28;20223;-44
2024/03/17 04:58:47;;;;;;;215.20;59.67;;;;;;;;;;5014291;28;20585;-44
2024/03/17 05:01:13;;;;;;;216.38;61.15;;;;;;;;;;5013972;28;20473;-45
2024/03/17 05:03:39;;;;;;;212.53;57.70;;;;;;;;;;5014089;28;20263;-44
2024/03/17 05:06:05;;;;;;;215.90;61.08;;;;;;;;;;5013594;28;20471;-44
2024/03/17 05:08:32;;;;;;;213.93;59.20;;;;;;;;;;5013840;28;20187;-44
2024/03/17 05:10:58;;;;;;;215.77;60.60;;;;;;;;;;5013796;28;20184;-44
2024/03/17 05:13:25;;;;;;;216.47;60.10;;;;;;;;;;5013734;28;20181;-44
2024/03/17 05:15:51;;;;;;;216.02;59.85;;;;;;;;;;5013502;28;20442;-44
2024/03/17 05:18:17;;;;;;;216.60;61.78;;;;;;;;;;5013607;28;20180;-44
2024/03/17 05:20:43;;;;;;;212.60;58.37;;;;;;;;;;5013878;28;20207;-45
2024/03/17 05:23:10;;;;;;;214.50;58.70;;;;;;;;;;5013819;28;20916;-44
2024/03/17 05:25:37;;;;;;;217.20;61.00;;;;;;;;;;5013282;28;20450;-45
2024/03/17 05:28:04;;;;;;;215.57;59.47;;;;;;;;;;5013544;28;20663;-44
2024/03/17 05:30:30;;;;;;;219.50;63.67;;;;;;;;;;5013515;28;20226;-44
2024/03/17 05:32:56;;;;;;;215.27;59.65;;;;;;;;;;5013525;28;20180;-44
2024/03/17 05:35:22;;;;;;;224.07;64.60;;;;;;;;;;5013014;28;20817;-44
2024/03/17 05:37:52;;;;;;;214.88;60.60;;;;;;;;;;5012460;28;20223;-44
2024/03/17 05:40:18;;;;;;;218.55;62.20;;;;;;;;;;5013200;28;21016;-44
2024/03/17 05:42:44;;;;;;;217.97;63.37;;;;;;;;;;5013462;28;20184;-44
2024/03/17 05:45:13;;;;;;;217.18;60.47;;;;;;;;;;5013265;28;20423;-44
2024/03/17 05:47:41;;;;;;;216.70;60.25;;;;;;;;;;5012976;28;20196;-44
2024/03/17 05:50:07;;;;;;;215.85;59.88;;;;;;;;;;5013132;28;20199;-44
2024/03/17 05:52:34;;;;;;;214.57;58.40;;;;;;;;;;5013070;28;20184;-44
2024/03/17 05:55:00;;;;;;;217.50;62.60;;;;;;;;;;5012995;28;20172;-44
2024/03/17 05:57:26;;;;;;;217.33;60.97;;;;;;;;;;5012833;28;20200;-44
2024/03/17 05:59:52;;;;;;;214.10;57.97;;;;;;;;;;5013012;28;20469;-44
2024/03/17 06:02:18;;;;;;;215.55;59.30;;;;;;;;;;5012748;28;20204;-45
2024/03/17 06:04:44;;;;;;;215.57;59.30;;;;;;;;;;5012909;28;20190;-45
2024/03/17 06:07:10;;;;;;;212.93;58.38;;;;;;;;;;5012581;28;20212;-45
2024/03/17 06:09:36;;;;;;;218.90;62.27;;;;;;;;;;5012807;28;20198;-44
2024/03/17 06:12:02;;;;;;;214.83;58.43;;;;;;;;;;5012770;28;20412;-45
2024/03/17 06:14:28;;;;;;;211.00;56.30;;;;;;;;;;5012641;28;20955;-45
2024/03/17 06:16:54;;;;;;;214.67;61.27;;;;;;;;;;5012350;28;20198;-45
2024/03/17 06:19:20;;;;;;;217.17;63.00;;;;;;;;;;5012522;28;20417;-45
2024/03/17 06:21:46;;;;;;;215.27;60.90;;;;;;;;;;5012423;28;20462;-44
2024/03/17 06:24:12;;;;;;;220.17;60.90;;;;;;;;;;5012038;28;20415;-44
2024/03/17 06:26:38;;;;;;;217.37;61.67;;;;;;;;;;5012008;28;20434;-45
2024/03/17 06:29:04;;;;;;;214.57;60.23;;;;;;;;;;5012621;28;20426;-44
2024/03/17 06:31:31;;;;;;;217.93;62.50;;;;;;;;;;5012451;28;20499;-44
2024/03/17 06:33:58;;;;;;;216.90;59.60;;;;;;;;;;5012311;28;20795;-44
2024/03/17 06:36:24;;;;;;;218.18;59.42;;;;;;;;;;5011893;28;20201;-45
2024/03/17 06:38:51;;;;;;;219.73;61.07;;;;;;;;;;5012107;28;20180;-45
2024/03/17 06:41:17;;;;;;;221.23;60.47;;;;;;;;;;5012146;28;20473;-45
2024/03/17 06:43:43;;;;;;;223.93;64.53;;;;;;;;;;5009459;28;20174;-45
2024/03/17 06:46:09;;;;;;;224.30;64.00;;;;;;;;;;5011631;28;20452;-44
2024/03/17 06:48:35;;;;;;;230.65;71.22;;;;;;;;;;5011788;28;20168;-45
2024/03/17 06:51:01;;;;;;;234.13;72.20;;;;;;;;;;5011872;28;20172;-45
2024/03/17 06:53:28;;;;;;;229.32;67.95;;;;;;;;;;5012437;28;20656;-45
2024/03/17 06:55:54;;;;;;;232.65;69.70;;;;;;;;;;5011686;28;20204;-46
2024/03/17 06:58:22;;;;;;;233.50;72.83;;;;;;;;;;5011699;28;20182;-45
2024/03/17 07:00:55;;;;;;;237.13;76.72;;;;;;;;;;5011597;28;20463;-45
2024/03/17 07:03:23;;;;;;;236.68;74.15;;;;;;;;;;5009804;28;20517;-45
2024/03/17 07:05:53;;;;;;;233.40;69.03;;;;;;;;;;5011077;28;20709;-45
2024/03/17 07:08:20;;;;;;;231.40;68.60;;;;;;;;;;5011598;28;20560;-45
2024/03/17 07:10:55;;;;;;;239.93;78.38;;;;;;;;;;5011531;28;20178;-45
2024/03/17 07:13:21;;;;;;;236.23;74.10;;;;;;;;;;5011597;28;20196;-45
2024/03/17 07:15:47;;;;;;;234.77;72.00;;;;;;;;;;5011440;28;20214;-44
2024/03/17 07:18:13;;;;;;;237.63;77.68;;;;;;;;;;5011389;28;20418;-45
2024/03/17 07:20:39;;;;;;;232.33;70.60;;;;;;;;;;5011184;28;20265;-45
2024/03/17 07:23:05;;;;;;;235.47;71.00;;;;;;;;;;5011441;28;20553;-45
2024/03/17 07:25:31;;;;;;;236.87;70.97;;;;;;;;;;5010994;28;20413;-45
2024/03/17 07:27:57;;;;;;;237.30;71.23;;;;;;;;;;5011324;28;20414;-45
2024/03/17 07:30:23;;;;;;;238.77;73.93;;;;;;;;;;5011380;28;20463;-45
2024/03/17 07:32:49;;;;;;;235.17;71.33;;;;;;;;;;5011231;28;20422;-45
2024/03/17 07:35:15;;;;;;;249.77;86.17;;;;;;;;;;5011115;28;20419;-45
2024/03/17 07:37:41;;;;;;;244.93;82.50;;;;;;;;;;5011375;28;20435;-45
2024/03/17 07:40:10;;;;;;;240.33;75.00;;;;;;;;;;5011380;28;20435;-45
2024/03/17 07:42:36;;;;;;;240.63;75.47;;;;;;;;;;5011204;28;20454;-45
2024/03/17 07:45:02;;;;;;;242.97;75.87;;;;;;;;;;5009244;28;20438;-45
2024/03/17 07:47:35;;;;;;;246.67;83.30;;;;;;;;;;5010771;28;20614;-45
2024/03/17 07:50:04;;;;;;;244.33;80.87;;;;;;;;;;5010968;28;20411;-45
2024/03/17 07:52:30;;;;;;;245.67;82.57;;;;;;;;;;5011044;28;20416;-45
2024/03/17 07:54:56;;;;;;;244.73;84.00;;;;;;;;;;5011115;28;20430;-45
2024/03/17 07:57:22;;;;;;;244.23;79.63;;;;;;;;;;5010871;28;20457;-46
2024/03/17 07:59:52;;;;;;;243.20;78.37;;;;;;;;;;5010987;28;20896;-45
2024/03/17 08:02:18;;;;;;;243.87;79.57;;;;;;;;;;5013942;28;20476;-45
2024/03/17 08:04:47;;;;;;;241.33;75.10;;;;;;;;;;5014903;28;20461;-45
2024/03/17 08:07:13;;;;;;;241.07;76.13;;;;;;;;;;5014466;28;20473;-45
2024/03/17 08:09:39;;;;;;;242.55;78.18;;;;;;;;;;5014872;28;20415;-45
2024/03/17 08:12:05;;;;;;;245.33;79.90;;;;;;;;;;5014940;28;20191;-45
2024/03/17 08:14:31;;;;;;;241.43;75.90;;;;;;;;;;5014694;28;20468;-45
2024/03/17 08:16:57;;;;;;;241.07;76.07;;;;;;;;;;5014348;28;20472;-45
2024/03/17 08:19:23;;;;;;;247.80;83.20;;;;;;;;;;5014780;28;20445;-45
2024/03/17 08:21:49;;;;;;;248.60;82.83;;;;;;;;;;5014803;28;20530;-45
2024/03/17 08:24:15;;;;;;;248.27;84.97;;;;;;;;;;5014804;28;20954;-46
2024/03/17 08:26:41;;;;;;;246.53;80.73;;;;;;;;;;5013094;28;20948;-46
2024/03/17 08:29:07;;;;;;;245.97;81.20;;;;;;;;;;5014475;28;20460;-46
2024/03/17 08:31:33;;;;;;;243.63;82.23;;;;;;;;;;5014436;28;20929;-46
2024/03/17 08:33:59;;;;;;;249.70;89.50;;;;;;;;;;5014432;28;20490;-45
2024/03/17 08:36:25;;;;;;;246.57;83.73;;;;;;;;;;5014077;28;20497;-45
2024/03/17 08:38:52;;;;;;;245.13;82.37;;;;;;;;;;5014308;28;20804;-45
2024/03/17 08:41:18;;;;;;;252.43;94.23;;;;;;;;;;5014206;28;20452;-45
2024/03/17 08:43:44;;;;;;;244.00;79.43;;;;;;;;;;5014463;28;20410;-46
2024/03/17 08:46:12;;;;;;;250.90;91.43;;;;;;;;;;5014100;28;20432;-46
2024/03/17 08:48:38;;;;;;;243.53;80.93;;;;;;;;;;5014320;28;20410;-45
2024/03/17 08:51:05;;;;;;;245.40;83.17;;;;;;;;;;5014108;28;20413;-46
2024/03/17 08:53:31;;;;;;;245.93;86.63;;;;;;;;;;5013281;28;20417;-46
2024/03/17 08:55:58;;;;;;;246.87;86.87;;;;;;;;;;5013677;28;20439;-46
2024/03/17 08:58:24;;;;;;;243.63;82.83;;;;;;;;;;5014011;28;20418;-46
2024/03/17 09:00:51;;;;;;;246.67;85.50;;;;;;;;;;5013986;28;20513;-45
2024/03/17 09:03:17;;;;;;;244.73;80.73;;;;;;;;;;5013542;28;20403;-45
2024/03/17 09:05:44;;;;;;;244.63;81.63;;;;;;;;;;5012379;28;20958;-46
2024/03/17 09:08:17;;;;;;;252.80;93.00;;;;;;;;;;5014075;28;20417;-45
2024/03/17 09:10:44;;;;;;;245.33;86.67;;;;;;;;;;5013888;28;20801;-45
2024/03/17 09:13:17;;;;;;;246.87;87.73;;;;;;;;;;5011690;28;20411;-46
2024/03/17 09:16:02;;;;;;;248.23;87.30;;;;;;;;;;5013807;28;20654;-45
2024/03/17 09:18:29;;;;;;;246.40;82.17;;;;;;;;;;5013635;28;20456;-45
2024/03/17 09:20:59;;;;;;;246.03;85.53;;;;;;;;;;5013509;28;20996;-46
2024/03/17 09:23:26;;;;;;;248.17;88.80;;;;;;;;;;5013628;28;20417;-45
2024/03/17 09:25:55;;;;;;;243.93;80.57;;;;;;;;;;5013450;28;20435;-46
2024/03/17 09:28:21;;;;;;;241.33;79.57;;;;;;;;;;5013700;28;20933;-46
2024/03/17 09:30:48;;;;;;;249.63;91.53;;;;;;;;;;5013639;28;20416;-46
2024/03/17 09:33:14;;;;;;;247.07;89.60;;;;;;;;;;5013525;28;20499;-45
2024/03/17 09:35:40;;;;;;;245.77;83.37;;;;;;;;;;5012922;28;20519;-45
2024/03/17 09:38:05;;;;;;;248.43;89.83;;;;;;;;;;5013348;28;20416;-46
2024/03/17 09:40:31;;;;;;;242.63;80.77;;;;;;;;;;5013276;28;20409;-46
2024/03/17 09:42:58;;;;;;;240.03;76.67;;;;;;;;;;5013314;28;20512;-45
2024/03/17 09:45:25;;;;;;;248.63;90.00;;;;;;;;;;5013028;28;20411;-46
2024/03/17 09:47:51;;;;;;;246.50;85.83;;;;;;;;;;5013291;28;20436;-45
2024/03/17 09:50:18;;;;;;;247.57;85.57;;;;;;;;;;5013227;28;20767;-45
2024/03/17 09:52:45;;;;;;;242.07;80.05;;;;;;;;;;5013157;28;20814;-45
2024/03/17 09:55:15;;;;;;;251.40;85.77;;;;;;;;;;5012682;28;20181;-45
2024/03/17 09:57:41;;;;;;;247.97;84.97;;;;;;;;;;5011975;28;20424;-45
2024/03/17 10:00:13;;;;;;;244.80;81.85;;;;;;;;;;5011797;28;20926;-45
2024/03/17 10:02:45;;;;;;;246.07;83.70;;;;;;;;;;5012764;28;20836;-45
2024/03/17 10:05:23;;;;;;;251.83;86.57;;;;;;;;;;5012572;28;20414;-45
2024/03/17 10:07:50;;;;;;;241.57;79.97;;;;;;;;;;5012465;28;20404;-45
2024/03/17 10:10:16;;;;;;;242.77;81.67;;;;;;;;;;5012941;28;20404;-45
2024/03/17 10:12:42;;;;;;;239.57;78.10;;;;;;;;;;5012585;28;20466;-45
2024/03/17 10:15:11;;;;;;;248.47;87.83;;;;;;;;;;5012210;28;20419;-46
2024/03/17 10:17:37;;;;;;;239.97;80.73;;;;;;;;;;5004866;28;20431;-45
2024/03/17 10:20:16;;;;;;;247.63;88.37;;;;;;;;;;5012838;28;20407;-45
2024/03/17 10:22:59;;;;;;;247.13;86.87;;;;;;;;;;5013218;28;20553;-46
2024/03/17 10:25:25;;;;;;;242.97;81.37;;;;;;;;;;5011651;28;20469;-46
2024/03/17 10:27:52;;;;;;;246.43;85.70;;;;;;;;;;5012242;28;20441;-46
2024/03/17 10:30:19;;;;;;;243.47;78.30;;;;;;;;;;5012200;28;20756;-45
2024/03/17 10:32:46;;;;;;;246.93;89.73;;;;;;;;;;5012239;28;20415;-45
2024/03/17 10:35:36;;;;;;;248.47;86.47;;;;;;;;;;5011901;28;20443;-45
2024/03/17 10:38:04;;;;;;;243.27;81.40;;;;;;;;;;5002579;28;20956;-46
2024/03/17 10:40:30;;;;;;;244.37;84.47;;;;;;;;;;5012108;28;20429;-45
2024/03/17 10:42:57;;;;;;;237.93;75.33;;;;;;;;;;5013168;28;20790;-45
2024/03/17 10:45:24;;;;;;;246.20;82.17;;;;;;;;;;5011538;28;20986;-45
2024/03/17 10:47:51;;;;;;;242.55;81.00;;;;;;;;;;5009437;28;20435;-45
2024/03/17 10:50:21;;;;;;;241.83;81.27;;;;;;;;;;5011687;28;20183;-46
2024/03/17 10:52:51;;;;;;;247.60;89.30;;;;;;;;;;5011380;28;20412;-46
2024/03/17 10:55:24;;;;;;;247.30;88.03;;;;;;;;;;5011463;28;20413;-46
2024/03/17 10:57:52;;;;;;;244.03;82.50;;;;;;;;;;5011794;28;20414;-46
2024/03/17 11:00:19;;;;;;;243.70;81.90;;;;;;;;;;5011573;28;20411;-46
2024/03/17 11:02:45;;;;;;;248.17;88.77;;;;;;;;;;5011439;28;20486;-45
2024/03/17 11:05:14;;;;;;;258.17;100.40;;;;;;;;;;5011065;28;20465;-45
2024/03/17 11:07:45;;;;;;;246.07;88.57;;;;;;;;;;5011453;28;20426;-45
2024/03/17 11:10:15;;;;;;;242.67;83.83;;;;;;;;;;5010366;28;20414;-46
2024/03/17 11:12:48;;;;;;;248.37;91.13;;;;;;;;;;5011729;28;20816;-46
2024/03/17 11:15:20;;;;;;;254.40;95.67;;;;;;;;;;5011111;28;20414;-47
2024/03/17 11:17:47;;;;;;;250.90;92.10;;;;;;;;;;5011012;28;20406;-46
2024/03/17 11:20:17;;;;;;;249.70;93.70;;;;;;;;;;5011183;28;20430;-46
2024/03/17 11:22:44;;;;;;;251.57;94.37;;;;;;;;;;5011110;28;20471;-46
2024/03/17 11:25:33;;;;;;;254.87;97.43;;;;;;;;;;5010980;28;20944;-45
2024/03/17 11:28:03;;;;;;;250.33;96.57;;;;;;;;;;5011579;28;20407;-46
2024/03/17 11:30:43;;;;;;;255.47;98.00;;;;;;;;;;5010761;28;20419;-46
2024/03/17 11:33:28;;;;;;;252.00;96.57;;;;;;;;;;5009225;28;20802;-46
2024/03/17 11:36:14;;;;;;;249.50;92.47;;;;;;;;;;5010475;28;20449;-46
2024/03/17 11:38:52;;;;;;;251.50;97.00;;;;;;;;;;5010134;28;20414;-46
2024/03/17 11:41:38;;;;;;;257.87;105.43;;;;;;;;;;5010650;28;20466;-46
2024/03/17 11:44:20;;;;;;;260.53;104.57;;;;;;;;;;5011069;28;20443;-45
2024/03/17 11:46:46;;;;;;;254.33;100.43;;;;;;;;;;5010087;28;20459;-46
2024/03/17 11:49:26;;;;;;;252.17;101.73;;;;;;;;;;5009752;28;20473;-46
2024/03/17 11:51:52;;;;;;;245.63;90.97;;;;;;;;;;5009538;28;20447;-46
2024/03/17 11:54:19;;;;;;;250.77;94.67;;;;;;;;;;5010668;28;20414;-46
2024/03/17 11:56:50;;;;;;;253.53;97.00;;;;;;;;;;5007974;28;20803;-46
2024/03/17 11:59:20;;;;;;;258.40;101.53;;;;;;;;;;5008149;28;20430;-46
2024/03/17 12:01:49;;;;;;;255.17;97.07;;;;;;;;;;5006494;28;20499;-46
2024/03/17 12:04:18;;;;;;;248.47;88.07;;;;;;;;;;5006415;28;20407;-47
2024/03/17 12:06:48;;;;;;;253.07;96.57;;;;;;;;;;5008715;28;20450;-45
2024/03/17 12:09:21;;;;;;;246.07;87.07;;;;;;;;;;5008915;28;20422;-46
2024/03/17 12:12:01;;;;;;;249.37;92.40;;;;;;;;;;5009786;28;20460;-46
2024/03/17 12:14:28;;;;;;;248.90;91.23;;;;;;;;;;5010708;28;20812;-46
2024/03/17 12:16:57;;;;;;;244.90;84.13;;;;;;;;;;5010006;28;20518;-46
2024/03/17 12:19:24;;;;;;;246.37;88.97;;;;;;;;;;5010159;28;20421;-45
2024/03/17 12:21:51;;;;;;;247.83;86.53;;;;;;;;;;5010520;28;20464;-45
2024/03/17 12:24:27;;;;;;;242.47;81.37;;;;;;;;;;5010311;28;20428;-45
2024/03/17 12:26:57;;;;;;;245.03;86.87;;;;;;;;;;5009864;28;20439;-45
2024/03/17 12:29:37;;;;;;;243.23;81.97;;;;;;;;;;5010656;28;20406;-45
2024/03/17 12:32:06;;;;;;;240.43;80.00;;;;;;;;;;5010694;28;20411;-46
2024/03/17 12:34:36;;;;;;;243.17;83.23;;;;;;;;;;5011115;28;20486;-45
2024/03/17 12:37:02;;;;;;;242.33;82.87;;;;;;;;;;5010249;28;20465;-45
2024/03/17 12:39:29;;;;;;;244.73;85.00;;;;;;;;;;5010732;28;20836;-45
2024/03/17 12:42:09;;;;;;;246.57;86.70;;;;;;;;;;5010579;28;20464;-46
2024/03/17 12:44:37;;;;;;;246.57;89.60;;;;;;;;;;5010607;28;20945;-45
2024/03/17 12:47:03;;;;;;;248.57;90.17;;;;;;;;;;5011104;28;20549;-45
2024/03/17 12:49:30;;;;;;;246.03;88.37;;;;;;;;;;5014093;28;20962;-46
2024/03/17 12:51:56;;;;;;;247.07;87.20;;;;;;;;;;5014112;28;20905;-47
2024/03/17 12:54:24;;;;;;;248.93;88.13;;;;;;;;;;5013960;28;20446;-46
2024/03/17 13:02:28;;;;;;;250.40;95.10;;;;;;;;;;5014025;28;20981;-45
2024/03/17 13:05:12;;;;;;;244.40;84.80;;;;;;;;;;5014118;28;20425;-46
2024/03/17 13:07:39;;;;;;;248.57;93.60;;;;;;;;;;5013763;28;20441;-46
2024/03/17 13:10:07;;;;;;;244.23;84.50;;;;;;;;;;5013730;28;20403;-46
2024/03/17 13:12:33;;;;;;;249.33;94.00;;;;;;;;;;5013789;28;20404;-46
2024/03/17 13:14:59;;;;;;;251.10;93.23;;;;;;;;;;5013488;28;20520;-46
2024/03/17 13:17:25;;;;;;;249.77;95.70;;;;;;;;;;5013521;28;20466;-46
2024/03/17 13:19:51;;;;;;;246.20;89.40;;;;;;;;;;5013700;28;20788;-47
2024/03/17 13:22:16;;;;;;;252.17;97.73;;;;;;;;;;5013452;28;20612;-45
2024/03/17 13:24:42;;;;;;;250.87;96.13;;;;;;;;;;5013441;28;20417;-46
2024/03/17 13:27:08;;;;;;;253.87;99.40;;;;;;;;;;5013473;28;20434;-46
2024/03/17 13:29:38;;;;;;;249.33;94.27;;;;;;;;;;5013520;28;20407;-46
2024/03/17 13:32:04;;;;;;;248.10;91.83;;;;;;;;;;5013491;28;20440;-47
2024/03/17 13:34:30;;;;;;;247.57;92.80;;;;;;;;;;5013315;28;20411;-46
2024/03/17 13:36:57;;;;;;;250.47;97.47;;;;;;;;;;5012847;28;20949;-46
2024/03/17 13:39:24;;;;;;;253.37;101.53;;;;;;;;;;5013051;28;20406;-47
2024/03/17 13:41:52;;;;;;;248.83;91.83;;;;;;;;;;5013165;28;20520;-45
2024/03/17 13:44:18;;;;;;;253.93;100.03;;;;;;;;;;5012838;28;20476;-46
2024/03/17 13:46:44;;;;;;;253.10;100.50;;;;;;;;;;5012764;28;20435;-46
2024/03/17 13:49:10;;;;;;;251.40;99.47;;;;;;;;;;5013105;28;20419;-46
2024/03/17 13:51:36;;;;;;;248.83;94.00;;;;;;;;;;5013332;28;20419;-47
2024/03/17 13:54:02;;;;;;;249.60;96.67;;;;;;;;;;5012894;28;20419;-46
2024/03/17 13:56:29;;;;;;;251.60;101.13;;;;;;;;;;5012532;28;20439;-46
2024/03/17 13:58:55;;;;;;;252.50;100.87;;;;;;;;;;5011384;28;20936;-46
2024/03/17 14:01:21;;;;;;;252.40;101.93;;;;;;;;;;5012585;28;21049;-46
2024/03/17 14:03:47;;;;;;;246.97;93.50;;;;;;;;;;5012669;28;20413;-46
2024/03/17 14:06:12;;;;;;;253.37;98.53;;;;;;;;;;5012281;28;20446;-46
2024/03/17 14:08:38;;;;;;;250.77;99.47;;;;;;;;;;5012427;28;20418;-47
2024/03/17 14:11:04;;;;;;;246.90;91.93;;;;;;;;;;5012648;28;20422;-46